Time;durP1;ratioP1;P1;durP2;ratioP2;P2;SDS_P1;SDS_P2;PMS_P1;PMS_P2;Temp;Humidity;BMP_temperature;BMP_pressure;BME280_temperature;BME280_humidity;BME280_pressure;Samples;Min_cycle;Max_cycle;Signal;HPM_P1;HPM_P2
2023/01/28 00:01:13;;;;;;;10.93;9.13;;;3.70;99.90;;;;;;5028381;28;20048;-63
2023/01/28 00:03:39;;;;;;;13.80;10.93;;;3.70;99.90;;;;;;5029176;28;20030;-61
2023/01/28 00:06:11;;;;;;;16.02;10.88;;;4.00;99.90;;;;;;5027891;28;20456;-63
2023/01/28 00:08:37;;;;;;;11.52;8.93;;;4.20;99.90;;;;;;5029406;28;20034;-59
2023/01/28 00:11:05;;;;;;;12.68;9.65;;;3.90;99.90;;;;;;5031547;28;20055;-62
2023/01/28 00:13:32;;;;;;;12.38;9.63;;;3.70;99.90;;;;;;5031775;28;20148;-61
2023/01/28 00:16:03;;;;;;;12.73;9.38;;;3.70;99.90;;;;;;5033192;28;20523;-58
2023/01/28 00:18:30;;;;;;;14.18;10.00;;;3.80;99.90;;;;;;5028313;28;20144;-62
2023/01/28 00:21:02;;;;;;;14.07;10.80;;;3.60;99.90;;;;;;5030020;28;20034;-62
2023/01/28 00:23:29;;;;;;;15.27;10.45;;;3.60;99.90;;;;;;5028946;28;20496;-61
2023/01/28 00:25:57;;;;;;;14.20;10.90;;;3.70;99.90;;;;;;5028513;28;20493;-60
2023/01/28 00:28:23;;;;;;;16.63;11.60;;;3.50;99.90;;;;;;5025142;28;20033;-59
2023/01/28 00:30:48;;;;;;;17.75;11.55;;;3.70;99.90;;;;;;5029931;28;20783;-63
2023/01/28 00:33:14;;;;;;;17.65;12.60;;;3.50;99.90;;;;;;5014920;28;20056;-61
2023/01/28 00:35:39;;;;;;;16.63;11.82;;;3.60;99.90;;;;;;5014290;28;20113;-61
2023/01/28 00:38:05;;;;;;;13.35;10.07;;;3.60;99.90;;;;;;5009357;28;20429;-62
2023/01/28 00:40:31;;;;;;;15.80;11.50;;;3.40;99.90;;;;;;5020466;28;20427;-62
2023/01/28 00:42:56;;;;;;;13.88;10.63;;;3.50;99.90;;;;;;5048906;28;20060;-58
2023/01/28 00:45:22;;;;;;;13.50;10.45;;;3.40;99.90;;;;;;5031794;28;20674;-57
2023/01/28 00:47:48;;;;;;;12.55;9.63;;;3.60;99.90;;;;;;5038037;28;20091;-63
2023/01/28 00:50:14;;;;;;;13.95;10.20;;;3.50;99.90;;;;;;5048638;28;20051;-63
2023/01/28 00:52:39;;;;;;;14.30;10.00;;;3.50;99.90;;;;;;5047826;28;20033;-62
2023/01/28 00:55:06;;;;;;;11.05;9.10;;;3.50;99.90;;;;;;5039825;28;20152;-63
2023/01/28 00:57:32;;;;;;;15.35;10.55;;;3.50;99.90;;;;;;5028663;28;20036;-61
2023/01/28 00:59:58;;;;;;;15.30;10.60;;;3.40;99.90;;;;;;5027935;28;20041;-59
2023/01/28 01:02:24;;;;;;;13.73;10.63;;;3.30;99.90;;;;;;5044719;28;20041;-62
2023/01/28 01:04:58;;;;;;;14.40;10.55;;;3.40;99.90;;;;;;5028563;28;20030;-63
2023/01/28 01:07:40;;;;;;;14.95;10.45;;;3.40;99.90;;;;;;5012917;28;20034;-62
2023/01/28 01:10:07;;;;;;;12.32;10.45;;;3.40;99.90;;;;;;5008590;28;20042;-61
2023/01/28 01:12:33;;;;;;;13.02;10.10;;;3.40;99.90;;;;;;5008922;28;21017;-61
2023/01/28 01:14:58;;;;;;;14.88;10.45;;;3.40;99.90;;;;;;5017334;28;20037;-63
2023/01/28 01:17:24;;;;;;;12.80;9.57;;;3.50;99.90;;;;;;5030785;28;20034;-61
2023/01/28 01:19:49;;;;;;;11.40;10.18;;;3.60;99.90;;;;;;5027915;28;20531;-59
2023/01/28 01:22:15;;;;;;;13.75;11.25;;;3.30;99.90;;;;;;5029940;28;20067;-58
2023/01/28 01:24:40;;;;;;;13.50;11.55;;;3.30;99.90;;;;;;5028970;28;20030;-63
2023/01/28 01:27:06;;;;;;;13.55;10.57;;;3.50;99.90;;;;;;5027848;28;20034;-59
2023/01/28 01:29:32;;;;;;;11.43;10.07;;;3.70;99.90;;;;;;5013603;28;20097;-61
2023/01/28 01:31:58;;;;;;;11.65;9.45;;;3.40;99.90;;;;;;5029226;28;20189;-59
2023/01/28 01:34:24;;;;;;;11.63;9.32;;;3.30;99.90;;;;;;5026649;28;20053;-62
2023/01/28 01:36:50;;;;;;;13.77;10.10;;;3.20;99.90;;;;;;5028629;28;20084;-63
2023/01/28 01:39:15;;;;;;;11.23;9.80;;;3.10;99.90;;;;;;5026397;28;20136;-63
2023/01/28 01:41:41;;;;;;;13.30;10.15;;;3.10;99.90;;;;;;5035708;28;20084;-62
2023/01/28 01:44:45;;;;;;;13.30;10.18;;;3.20;99.90;;;;;;5027423;28;20519;-60
2023/01/28 01:47:12;;;;;;;12.93;10.95;;;3.30;99.90;;;;;;5032784;28;20041;-58
2023/01/28 01:49:37;;;;;;;13.43;10.98;;;3.30;99.90;;;;;;5034007;28;20038;-62
2023/01/28 01:52:11;;;;;;;15.38;11.63;;;3.30;99.90;;;;;;5027478;28;20040;-63
2023/01/28 01:54:39;;;;;;;14.50;10.98;;;3.30;99.90;;;;;;5028409;28;20184;-63
2023/01/28 01:57:08;;;;;;;16.60;12.02;;;3.20;99.90;;;;;;5026043;28;20034;-62
2023/01/28 01:59:35;;;;;;;12.35;10.75;;;3.40;99.90;;;;;;5026849;28;20083;-60
2023/01/28 02:02:04;;;;;;;10.43;9.00;;;3.30;99.90;;;;;;5027035;28;20048;-63
2023/01/28 02:04:42;;;;;;;12.35;9.40;;;3.20;99.90;;;;;;5028188;28;20041;-64
2023/01/28 02:07:11;;;;;;;11.75;9.35;;;3.10;99.90;;;;;;5017008;28;20042;-63
2023/01/28 02:09:37;;;;;;;12.25;8.55;;;3.20;99.90;;;;;;5027980;28;20029;-61
2023/01/28 02:12:09;;;;;;;11.25;8.43;;;3.10;99.90;;;;;;5026019;28;20040;-61
2023/01/28 02:14:40;;;;;;;13.45;7.97;;;3.10;99.90;;;;;;5029906;28;20401;-60
2023/01/28 02:17:06;;;;;;;11.75;8.00;;;3.10;99.90;;;;;;5030573;28;20461;-64
2023/01/28 02:19:50;;;;;;;9.43;7.00;;;2.90;99.90;;;;;;5025351;28;20140;-62
2023/01/28 02:22:34;;;;;;;10.75;7.40;;;2.90;99.90;;;;;;5026428;28;20033;-62
2023/01/28 02:25:19;;;;;;;7.47;6.30;;;;;;;;;;5027759;28;20067;-63
2023/01/28 02:28:05;;;;;;;9.32;7.22;;;2.70;99.90;;;;;;5007625;28;20453;-63
2023/01/28 02:30:39;;;;;;;9.70;7.00;;;2.70;99.90;;;;;;5015038;28;20037;-60
2023/01/28 02:33:21;;;;;;;7.20;5.88;;;2.70;99.90;;;;;;5026490;28;20528;-63
2023/01/28 02:35:52;;;;;;;10.40;7.72;;;2.70;99.90;;;;;;5027316;28;20061;-56
2023/01/28 02:38:23;;;;;;;8.93;6.28;;;2.80;99.90;;;;;;5025597;28;20030;-61
2023/01/28 02:41:04;;;;;;;9.27;7.75;;;2.70;99.90;;;;;;5034903;28;20029;-61
2023/01/28 02:43:36;;;;;;;9.52;6.68;;;2.60;99.90;;;;;;5046556;28;20036;-59
2023/01/28 02:48:58;;;;;;;8.52;7.10;;;2.70;99.90;;;;;;5039398;28;20087;-62
2023/01/28 02:51:29;;;;;;;8.25;7.40;;;2.70;99.90;;;;;;5046468;28;20468;-61
2023/01/28 02:54:12;;;;;;;9.60;7.45;;;2.70;99.90;;;;;;5047228;28;20702;-63
2023/01/28 02:56:55;;;;;;;9.20;7.73;;;2.70;99.90;;;;;;5031685;28;20025;-62
2023/01/28 02:59:34;;;;;;;9.20;7.22;;;2.60;99.90;;;;;;5025811;28;20525;-63
2023/01/28 03:02:28;;;;;;;10.45;8.38;;;2.60;99.90;;;;;;5042436;28;20037;-63
2023/01/28 03:05:06;;;;;;;12.25;7.35;;;2.60;99.90;;;;;;4995601;28;20097;-60
2023/01/28 03:07:35;;;;;;;8.63;6.78;;;2.70;99.90;;;;;;5023476;28;20103;-59
2023/01/28 03:10:05;;;;;;;8.95;6.93;;;2.70;99.90;;;;;;5026676;28;20088;-63
2023/01/28 03:38:19;;;;;;;14.82;10.82;;;2.60;99.90;;;;;;5030404;28;20036;-63
2023/01/28 03:40:54;;;;;;;14.50;11.05;;;2.90;99.90;;;;;;5037100;28;20032;-58
2023/01/28 03:43:20;;;;;;;14.52;10.10;;;2.90;99.90;;;;;;5049570;28;20065;-60
2023/01/28 03:45:50;;;;;;;13.65;10.25;;;3.00;99.90;;;;;;5039042;28;20031;-62
2023/01/28 03:48:19;;;;;;;14.32;11.15;;;3.00;99.90;;;;;;5039877;28;20041;-60
2023/01/28 03:50:46;;;;;;;13.98;10.85;;;3.00;99.90;;;;;;5044394;28;20042;-59
2023/01/28 03:53:14;;;;;;;13.15;10.73;;;2.70;99.90;;;;;;5029958;28;20069;-63
2023/01/28 03:55:43;;;;;;;13.48;10.77;;;3.00;99.90;;;;;;5030446;28;20021;-60
2023/01/28 03:58:09;;;;;;;15.25;11.52;;;2.90;99.90;;;;;;5028187;28;20420;-63
2023/01/28 04:00:42;;;;;;;14.57;11.70;;;3.10;99.90;;;;;;5024879;28;20036;-62
2023/01/28 04:03:15;;;;;;;10.15;7.78;;;3.20;99.90;;;;;;5036610;28;20099;-61
2023/01/28 04:05:56;;;;;;;13.57;11.05;;;2.80;99.90;;;;;;5030308;28;20057;-62
2023/01/28 04:08:21;;;;;;;13.77;11.07;;;2.70;99.90;;;;;;5019643;28;20048;-61
2023/01/28 04:10:47;;;;;;;15.88;11.18;;;2.70;99.90;;;;;;5029999;28;20033;-60
2023/01/28 04:13:13;;;;;;;16.15;11.13;;;2.90;99.90;;;;;;5028043;28;20029;-63
2023/01/28 04:15:38;;;;;;;12.65;10.00;;;3.10;99.90;;;;;;5033254;28;20112;-63
2023/01/28 04:18:04;;;;;;;12.45;10.25;;;3.10;99.90;;;;;;5028350;28;20049;-63
2023/01/28 04:20:30;;;;;;;15.18;10.80;;;2.80;99.90;;;;;;5028845;28;20381;-62
2023/01/28 04:22:56;;;;;;;12.20;10.15;;;2.80;99.90;;;;;;5032548;28;20119;-60
2023/01/28 04:25:21;;;;;;;14.35;10.85;;;2.90;99.90;;;;;;5046696;28;20480;-61
2023/01/28 04:27:47;;;;;;;13.82;10.68;;;3.10;99.90;;;;;;5049137;28;20377;-63
2023/01/28 04:30:13;;;;;;;12.30;9.82;;;2.80;99.90;;;;;;5024171;28;20285;-62
2023/01/28 04:32:38;;;;;;;14.98;11.00;;;3.00;99.90;;;;;;5025697;28;20030;-59
2023/01/28 04:35:04;;;;;;;13.45;10.50;;;3.10;99.90;;;;;;5015095;28;20034;-61
2023/01/28 04:37:30;;;;;;;14.05;11.40;;;3.00;99.90;;;;;;5022610;28;20048;-60
2023/01/28 04:39:55;;;;;;;13.40;10.73;;;3.30;99.90;;;;;;5029691;28;20108;-62
2023/01/28 04:42:21;;;;;;;16.08;11.15;;;3.30;99.90;;;;;;5047712;28;20638;-62
2023/01/28 04:44:46;;;;;;;15.23;10.95;;;3.10;99.90;;;;;;5042939;28;20500;-63
2023/01/28 04:47:12;;;;;;;15.52;11.65;;;2.90;99.90;;;;;;5030261;28;20038;-58
2023/01/28 04:49:37;;;;;;;17.58;11.40;;;2.80;99.90;;;;;;5047694;28;20676;-63
2023/01/28 04:52:03;;;;;;;13.85;10.80;;;2.90;99.90;;;;;;5049178;28;20036;-62
2023/01/28 04:54:29;;;;;;;16.10;11.85;;;2.70;99.90;;;;;;5049596;28;20036;-60
2023/01/28 04:56:55;;;;;;;14.90;11.38;;;2.90;99.90;;;;;;5040185;28;20038;-62
2023/01/28 04:59:22;;;;;;;19.70;12.52;;;2.70;99.90;;;;;;5028355;28;20473;-61
2023/01/28 05:01:48;;;;;;;17.77;11.63;;;2.70;99.90;;;;;;5043192;28;20132;-61
2023/01/28 05:04:16;;;;;;;16.83;11.88;;;2.70;99.90;;;;;;5030084;28;20087;-63
2023/01/28 05:06:41;;;;;;;15.68;12.02;;;2.60;99.90;;;;;;5031704;28;20026;-61
2023/01/28 05:09:07;;;;;;;19.35;12.65;;;2.70;99.90;;;;;;5027680;28;20091;-63
2023/01/28 05:11:33;;;;;;;15.60;12.45;;;2.70;99.90;;;;;;5028568;28;20033;-59
2023/01/28 05:13:59;;;;;;;15.23;11.38;;;2.80;99.90;;;;;;5028674;28;20044;-62
2023/01/28 05:16:24;;;;;;;15.13;11.90;;;2.70;99.90;;;;;;5032022;28;20420;-59
2023/01/28 05:18:50;;;;;;;18.60;12.63;;;2.80;99.90;;;;;;5026426;28;20041;-59
2023/01/28 05:21:16;;;;;;;17.15;11.88;;;3.00;99.90;;;;;;5028646;28;20051;-63
2023/01/28 05:23:42;;;;;;;17.52;11.73;;;3.00;99.90;;;;;;5029039;28;20025;-63
2023/01/28 05:26:08;;;;;;;15.75;12.30;;;2.70;99.90;;;;;;5028239;28;20659;-62
2023/01/28 05:28:34;;;;;;;17.98;12.23;;;2.70;99.90;;;;;;5022894;28;20378;-63
2023/01/28 05:31:04;;;;;;;19.00;12.02;;;2.70;99.90;;;;;;5025082;28;20110;-62
2023/01/28 05:33:29;;;;;;;17.73;12.50;;;2.60;99.90;;;;;;5019722;28;20037;-63
2023/01/28 05:35:55;;;;;;;18.48;13.20;;;2.70;99.90;;;;;;5028917;28;20030;-62
2023/01/28 05:38:21;;;;;;;19.10;14.68;;;2.70;99.90;;;;;;5028092;28;20484;-61
2023/01/28 05:40:47;;;;;;;18.83;14.50;;;2.60;99.90;;;;;;5029766;28;20493;-57
2023/01/28 05:43:13;;;;;;;21.10;15.48;;;2.50;99.90;;;;;;5027503;28;20037;-61
2023/01/28 05:45:38;;;;;;;22.33;15.93;;;2.70;99.90;;;;;;5031841;28;20100;-64
2023/01/28 05:48:04;;;;;;;23.52;15.10;;;2.60;99.90;;;;;;5036522;28;20029;-62
2023/01/28 05:50:30;;;;;;;20.23;14.70;;;2.80;99.90;;;;;;5047795;28;20028;-62
2023/01/28 05:52:55;;;;;;;23.33;15.10;;;2.60;99.90;;;;;;5031909;28;20037;-60
2023/01/28 05:55:21;;;;;;;21.48;14.60;;;2.70;99.90;;;;;;5027945;28;20105;-62
2023/01/28 05:57:47;;;;;;;22.02;14.70;;;2.50;99.90;;;;;;5026538;28;20034;-63
2023/01/28 06:00:14;;;;;;;22.90;15.20;;;2.50;99.90;;;;;;5019656;28;20111;-63
2023/01/28 06:02:40;;;;;;;21.08;14.48;;;2.50;99.90;;;;;;5041857;28;20034;-62
2023/01/28 06:05:06;;;;;;;21.70;14.88;;;2.60;99.90;;;;;;5026727;28;20045;-62
2023/01/28 06:07:32;;;;;;;26.88;17.23;;;2.60;99.90;;;;;;5018969;28;20037;-62
2023/01/28 06:09:57;;;;;;;27.23;17.30;;;2.50;99.90;;;;;;5028198;28;20091;-62
2023/01/28 06:12:23;;;;;;;23.42;16.13;;;2.60;99.90;;;;;;5027508;28;20049;-60
2023/01/28 06:14:48;;;;;;;26.08;17.58;;;2.60;99.90;;;;;;5028407;28;20040;-60
2023/01/28 06:17:14;;;;;;;21.98;15.57;;;2.60;99.90;;;;;;5029955;28;20071;-63
2023/01/28 06:19:39;;;;;;;21.67;15.35;;;2.70;99.90;;;;;;5026956;28;20530;-62
2023/01/28 06:22:05;;;;;;;23.95;14.52;;;2.80;99.90;;;;;;5027309;28;20053;-60
2023/01/28 06:24:31;;;;;;;20.95;14.75;;;2.90;99.90;;;;;;5027391;28;20441;-62
2023/01/28 06:26:56;;;;;;;20.05;13.85;;;2.60;99.90;;;;;;5027978;28;20463;-61
2023/01/28 06:29:22;;;;;;;22.52;14.35;;;2.50;99.90;;;;;;5024270;28;20508;-62
2023/01/28 06:31:48;;;;;;;20.63;14.90;;;2.40;99.90;;;;;;5018247;28;20103;-59
2023/01/28 06:34:14;;;;;;;21.90;14.45;;;2.40;99.90;;;;;;5024771;28;20060;-62
2023/01/28 06:36:40;;;;;;;22.42;15.60;;;2.60;99.90;;;;;;5026404;28;20032;-62
2023/01/28 06:39:05;;;;;;;26.00;15.18;;;2.50;99.90;;;;;;5007846;28;20033;-60
2023/01/28 06:41:31;;;;;;;21.98;15.45;;;2.50;99.90;;;;;;5033724;28;20365;-59
2023/01/28 06:43:56;;;;;;;25.27;16.73;;;2.50;99.90;;;;;;5026744;28;20037;-61
2023/01/28 06:46:23;;;;;;;25.38;16.52;;;2.70;99.90;;;;;;5029705;28;20037;-57
2023/01/28 06:48:49;;;;;;;24.70;16.67;;;2.80;99.90;;;;;;5041431;28;20033;-56
2023/01/28 06:51:14;;;;;;;23.85;16.80;;;2.60;99.90;;;;;;5046484;28;20037;-61
2023/01/28 06:53:40;;;;;;;24.13;15.18;;;2.50;99.90;;;;;;5047280;28;20056;-60
2023/01/28 06:56:07;;;;;;;22.55;15.68;;;2.40;99.90;;;;;;5047159;28;20477;-62
2023/01/28 06:58:33;;;;;;;25.92;16.90;;;2.40;99.90;;;;;;5034895;28;20489;-63
2023/01/28 07:00:59;;;;;;;23.80;15.82;;;2.50;99.90;;;;;;5035540;28;20037;-62
2023/01/28 07:03:24;;;;;;;27.70;18.20;;;2.50;99.90;;;;;;5034490;28;20034;-57
2023/01/28 07:05:50;;;;;;;27.38;19.05;;;2.70;99.90;;;;;;5029775;28;20038;-63
2023/01/28 07:08:16;;;;;;;29.95;19.02;;;2.80;99.90;;;;;;5010714;28;20034;-61
2023/01/28 07:10:42;;;;;;;27.17;17.85;;;2.80;99.90;;;;;;5031406;28;20025;-59
2023/01/28 07:13:08;;;;;;;30.80;17.98;;;2.90;99.90;;;;;;5030526;28;20076;-62
2023/01/28 07:15:33;;;;;;;27.40;18.10;;;2.90;99.90;;;;;;5034702;28;20451;-58
2023/01/28 07:17:59;;;;;;;27.75;17.92;;;2.80;99.90;;;;;;5030805;28;20033;-59
2023/01/28 07:20:25;;;;;;;31.73;20.30;;;2.80;99.90;;;;;;5028931;28;20044;-63
2023/01/28 07:22:50;;;;;;;31.17;19.75;;;2.50;99.90;;;;;;5031314;28;20060;-61
2023/01/28 07:25:16;;;;;;;35.30;20.27;;;2.40;99.90;;;;;;5031344;28;20060;-63
2023/01/28 07:27:46;;;;;;;37.38;21.52;;;2.40;99.90;;;;;;5031009;28;20048;-63
2023/01/28 07:30:12;;;;;;;29.15;19.58;;;2.60;99.90;;;;;;5020943;28;20040;-59
2023/01/28 07:32:38;;;;;;;28.13;18.45;;;2.70;99.90;;;;;;5029410;28;20029;-62
2023/01/28 07:35:04;;;;;;;31.27;19.45;;;2.40;99.90;;;;;;5030706;28;20034;-62
2023/01/28 07:37:29;;;;;;;32.97;22.10;;;2.30;99.90;;;;;;5030948;28;20461;-61
2023/01/28 07:39:55;;;;;;;36.03;21.98;;;2.40;99.90;;;;;;5031543;28;20494;-60
2023/01/28 07:42:20;;;;;;;39.25;22.75;;;2.60;99.90;;;;;;5048613;28;20036;-62
2023/01/28 07:44:46;;;;;;;37.30;23.05;;;2.80;99.90;;;;;;5044717;28;20500;-62
2023/01/28 07:47:12;;;;;;;39.20;24.50;;;2.80;99.90;;;;;;5034913;28;20499;-61
2023/01/28 07:49:40;;;;;;;39.15;24.30;;;2.70;99.90;;;;;;5049436;28;20392;-58
2023/01/28 07:52:09;;;;;;;36.67;22.73;;;2.60;99.90;;;;;;5050312;28;20381;-62
2023/01/28 07:54:35;;;;;;;35.80;23.55;;;2.60;99.90;;;;;;5030886;28;20352;-61
2023/01/28 07:57:01;;;;;;;35.38;21.63;;;2.50;99.90;;;;;;5030174;28;20415;-61
2023/01/28 07:59:26;;;;;;;38.60;23.83;;;2.50;99.90;;;;;;5029415;28;20025;-62
2023/01/28 08:01:55;;;;;;;35.15;23.42;;;2.40;99.90;;;;;;5029092;28;20045;-59
2023/01/28 08:04:20;;;;;;;37.40;23.23;;;2.60;99.90;;;;;;5030533;28;20033;-60
2023/01/28 08:06:46;;;;;;;38.35;24.00;;;2.50;99.90;;;;;;5022932;28;20551;-62
2023/01/28 08:09:11;;;;;;;39.40;23.95;;;2.70;99.90;;;;;;5027263;28;20057;-63
2023/01/28 08:11:38;;;;;;;38.65;22.52;;;2.90;99.90;;;;;;5030047;28;20489;-61
2023/01/28 08:14:04;;;;;;;33.58;22.25;;;2.40;99.90;;;;;;5031914;28;20021;-61
2023/01/28 08:16:30;;;;;;;37.10;22.60;;;2.50;99.90;;;;;;5031760;28;20695;-60
2023/01/28 08:18:55;;;;;;;35.60;22.35;;;2.40;99.90;;;;;;5029062;28;20037;-61
2023/01/28 08:21:21;;;;;;;33.53;20.67;;;2.40;99.90;;;;;;5030176;28;20045;-61
2023/01/28 08:23:47;;;;;;;35.22;22.67;;;2.30;99.90;;;;;;5030450;28;20037;-61
2023/01/28 08:26:14;;;;;;;34.03;21.25;;;2.50;99.90;;;;;;5028433;28;20056;-61
2023/01/28 08:28:40;;;;;;;33.78;21.23;;;2.70;99.90;;;;;;5023501;28;20026;-59
2023/01/28 08:31:05;;;;;;;35.17;21.63;;;2.50;99.90;;;;;;5023899;28;20107;-62
2023/01/28 08:33:31;;;;;;;32.80;21.20;;;2.40;99.90;;;;;;5029107;28;20497;-63
2023/01/28 08:35:57;;;;;;;33.03;20.95;;;2.60;99.90;;;;;;5030022;28;20037;-62
2023/01/28 08:38:22;;;;;;;33.08;21.67;;;2.40;99.90;;;;;;5014698;28;20535;-63
2023/01/28 08:40:54;;;;;;;34.55;20.98;;;2.60;99.90;;;;;;5022723;28;20022;-60
2023/01/28 08:43:20;;;;;;;35.38;22.27;;;2.70;99.90;;;;;;5027034;28;20033;-60
2023/01/28 08:45:46;;;;;;;31.92;20.02;;;2.80;99.90;;;;;;5032662;28;20091;-58
2023/01/28 08:48:14;;;;;;;31.35;19.08;;;2.70;99.90;;;;;;5028856;28;20794;-59
2023/01/28 08:50:40;;;;;;;25.60;17.25;;;2.60;99.90;;;;;;5029691;28;20493;-59
2023/01/28 08:53:14;;;;;;;24.58;16.58;;;2.70;99.90;;;;;;5027829;28;20084;-61
2023/01/28 08:55:40;;;;;;;26.58;17.90;;;2.60;99.90;;;;;;5029567;28;20113;-63
2023/01/28 08:58:12;;;;;;;27.80;16.27;;;2.50;99.90;;;;;;5031074;28;20112;-62
2023/01/28 09:00:38;;;;;;;29.85;18.02;;;2.60;99.90;;;;;;5032915;28;20549;-59
2023/01/28 09:03:04;;;;;;;28.20;17.42;;;2.40;99.90;;;;;;5040391;28;20068;-62
2023/01/28 09:05:31;;;;;;;26.70;17.75;;;2.50;99.90;;;;;;5029445;28;20051;-60
2023/01/28 09:08:01;;;;;;;30.85;19.02;;;2.30;99.90;;;;;;5011060;28;20121;-64
2023/01/28 09:10:26;;;;;;;28.50;18.70;;;2.40;99.90;;;;;;5018575;28;20112;-61
2023/01/28 09:12:52;;;;;;;29.15;18.40;;;2.30;99.90;;;;;;5028788;28;20112;-59
2023/01/28 09:15:18;;;;;;;27.90;18.60;;;2.40;99.90;;;;;;5030106;28;20083;-62
2023/01/28 09:17:44;;;;;;;28.38;17.67;;;2.40;99.90;;;;;;5030417;28;20372;-62
2023/01/28 09:20:11;;;;;;;31.38;20.00;;;2.20;99.90;;;;;;5027709;28;20037;-59
2023/01/28 09:22:36;;;;;;;31.10;19.27;;;2.10;99.90;;;;;;5028433;28;20041;-61
2023/01/28 09:25:02;;;;;;;32.75;20.25;;;2.30;99.90;;;;;;5028376;28;20037;-62
2023/01/28 09:27:28;;;;;;;32.75;20.75;;;2.50;99.90;;;;;;5027848;28;20039;-63
2023/01/28 09:29:53;;;;;;;34.70;20.60;;;2.30;99.90;;;;;;5019155;28;20061;-62
2023/01/28 09:32:19;;;;;;;35.38;21.40;;;2.30;99.90;;;;;;5019272;28;20510;-61
2023/01/28 09:34:44;;;;;;;31.23;20.60;;;2.60;99.90;;;;;;5028305;28;20453;-61
2023/01/28 09:37:10;;;;;;;33.38;20.80;;;2.30;99.90;;;;;;5027843;28;20087;-63
2023/01/28 09:39:37;;;;;;;35.05;21.48;;;2.30;99.90;;;;;;5028069;28;20500;-63
2023/01/28 09:42:30;;;;;;;30.35;19.88;;;2.30;99.90;;;;;;5037113;28;20601;-63
2023/01/28 09:45:14;;;;;;;35.25;20.67;;;2.30;99.90;;;;;;5028549;28;20033;-57
2023/01/28 09:47:50;;;;;;;32.65;20.42;;;2.40;99.90;;;;;;5031278;28;20067;-62
2023/01/28 09:50:32;;;;;;;31.58;21.17;;;2.60;99.90;;;;;;5046560;28;20036;-63
2023/01/28 09:53:08;;;;;;;39.15;24.30;;;2.60;99.90;;;;;;5040942;28;20068;-61
2023/01/28 09:55:38;;;;;;;35.58;22.13;;;2.30;99.90;;;;;;5027538;28;20623;-59
2023/01/28 09:58:10;;;;;;;32.75;21.95;;;2.30;99.90;;;;;;5026840;28;20443;-62
2023/01/28 10:00:50;;;;;;;34.87;22.10;;;2.50;99.90;;;;;;5029079;28;20345;-63
2023/01/28 10:03:29;;;;;;;29.08;18.77;;;2.60;99.90;;;;;;5015994;28;20570;-60
2023/01/28 10:06:09;;;;;;;29.98;18.98;;;2.30;99.90;;;;;;5028230;28;20040;-58
2023/01/28 10:09:18;;;;;;;29.73;19.40;;;2.20;99.90;;;;;;5027970;28;20349;-63
2023/01/28 10:12:17;;;;;;;30.33;19.05;;;2.30;99.90;;;;;;5016870;28;20497;-63
2023/01/28 10:15:21;;;;;;;29.42;18.55;;;2.30;99.90;;;;;;5026735;28;20034;-61
2023/01/28 10:17:51;;;;;;;30.33;19.40;;;2.10;99.90;;;;;;5026095;28;20034;-61
2023/01/28 10:20:24;;;;;;;33.08;19.02;;;2.20;99.90;;;;;;5026213;28;20068;-60
2023/01/28 10:23:02;;;;;;;28.15;19.77;;;2.20;99.90;;;;;;5027955;28;20079;-61
2023/01/28 10:25:30;;;;;;;31.83;19.27;;;2.30;99.90;;;;;;5026739;28;22564;-61
2023/01/28 10:27:57;;;;;;;28.67;18.90;;;2.20;99.90;;;;;;5027176;28;20088;-61
2023/01/28 10:30:26;;;;;;;31.15;20.17;;;2.20;99.90;;;;;;5011444;28;20516;-63
2023/01/28 10:32:57;;;;;;;31.00;19.05;;;2.30;99.90;;;;;;5029053;28;20038;-62
2023/01/28 10:35:23;;;;;;;28.23;19.27;;;2.30;99.90;;;;;;5026604;28;20512;-63
2023/01/28 10:37:53;;;;;;;32.08;19.63;;;2.30;99.90;;;;;;5026057;28;20037;-63
2023/01/28 10:40:18;;;;;;;30.63;18.45;;;2.40;99.90;;;;;;5029840;28;20029;-63
2023/01/28 10:42:44;;;;;;;30.00;19.88;;;2.40;99.90;;;;;;5037104;28;20112;-59
2023/01/28 10:45:20;;;;;;;29.15;18.50;;;2.40;99.90;;;;;;5026664;28;20029;-63
2023/01/28 10:47:52;;;;;;;34.28;19.33;;;2.40;99.90;;;;;;5033427;28;20579;-61
2023/01/28 10:50:28;;;;;;;31.33;20.17;;;2.20;99.90;;;;;;5035185;28;20034;-61
2023/01/28 10:52:59;;;;;;;33.70;19.83;;;2.40;99.90;;;;;;5026303;28;20026;-62
2023/01/28 10:55:33;;;;;;;30.58;18.98;;;2.30;99.90;;;;;;5025853;28;20044;-60
2023/01/28 10:58:01;;;;;;;32.33;20.42;;;2.40;99.90;;;;;;5025289;28;20118;-63
2023/01/28 11:00:32;;;;;;;32.58;20.40;;;2.60;99.90;;;;;;5028314;28;20067;-55
2023/01/28 11:02:58;;;;;;;32.63;20.20;;;2.20;99.90;;;;;;5039400;28;20065;-59
2023/01/28 11:05:30;;;;;;;35.33;20.35;;;2.10;99.90;;;;;;5026242;28;20034;-60
2023/01/28 11:08:14;;;;;;;32.80;20.23;;;2.00;99.90;;;;;;5009782;28;20058;-59
2023/01/28 11:10:40;;;;;;;30.63;18.77;;;2.00;99.90;;;;;;5018016;28;20030;-62
2023/01/28 11:13:24;;;;;;;33.10;19.30;;;2.00;99.90;;;;;;5026162;28;20038;-61
2023/01/28 11:16:02;;;;;;;28.95;18.25;;;2.00;99.90;;;;;;5030098;28;20507;-58
2023/01/28 11:18:34;;;;;;;27.52;16.80;;;2.00;99.90;;;;;;5025077;28;20034;-63
2023/01/28 11:21:03;;;;;;;22.40;14.97;;;1.90;99.90;;;;;;5025186;28;20064;-62
2023/01/28 11:23:34;;;;;;;29.52;17.67;;;2.10;99.90;;;;;;5026656;28;20117;-62
2023/01/28 11:26:21;;;;;;;31.88;18.63;;;1.80;99.90;;;;;;5027314;28;20065;-62
2023/01/28 11:28:47;;;;;;;34.05;20.05;;;1.80;99.90;;;;;;5025416;28;20485;-59
2023/01/28 11:31:16;;;;;;;30.25;19.35;;;1.90;99.90;;;;;;5020963;28;20124;-57
2023/01/28 11:33:50;;;;;;;30.75;19.13;;;1.90;99.90;;;;;;5023989;28;20037;-62
2023/01/28 11:36:20;;;;;;;28.55;16.55;;;2.00;99.90;;;;;;5006872;28;20030;-63
2023/01/28 11:38:57;;;;;;;30.60;19.77;;;2.00;99.90;;;;;;5006737;28;20092;-62
2023/01/28 11:41:27;;;;;;;30.00;18.15;;;2.30;99.90;;;;;;5031689;28;20315;-62
2023/01/28 11:43:54;;;;;;;31.67;18.98;;;2.30;99.90;;;;;;5030655;28;20037;-63
2023/01/28 11:46:19;;;;;;;32.97;20.63;;;2.20;99.90;;;;;;5029345;28;20026;-61
2023/01/28 11:49:02;;;;;;;30.20;18.75;;;2.10;99.90;;;;;;5038588;28;20552;-63
2023/01/28 11:51:33;;;;;;;25.80;17.45;;;2.00;99.90;;;;;;5047353;28;20403;-62
2023/01/28 11:54:02;;;;;;;31.48;19.80;;;2.00;99.90;;;;;;5041996;28;20033;-63
2023/01/28 11:56:45;;;;;;;32.70;19.90;;;2.10;99.90;;;;;;5030144;28;20524;-62
2023/01/28 11:59:25;;;;;;;33.38;20.75;;;1.90;99.90;;;;;;5027895;28;20025;-61
2023/01/28 12:02:23;;;;;;;33.25;19.63;;;1.70;99.90;;;;;;5035424;28;20107;-63
2023/01/28 12:05:00;;;;;;;35.75;20.70;;;1.80;99.90;;;;;;5014100;28;20033;-59
2023/01/28 12:07:29;;;;;;;33.97;20.95;;;1.90;99.90;;;;;;5017884;28;20036;-62
2023/01/28 12:09:59;;;;;;;33.45;20.55;;;2.00;99.90;;;;;;5029918;28;20041;-62
2023/01/28 12:12:49;;;;;;;33.63;19.73;;;1.80;99.90;;;;;;5031494;28;20485;-57
2023/01/28 12:15:52;;;;;;;33.60;20.40;;;2.00;99.90;;;;;;5028484;28;20043;-61
2023/01/28 12:18:31;;;;;;;35.35;22.20;;;2.10;99.90;;;;;;5023232;28;20045;-55
2023/01/28 12:21:13;;;;;;;34.65;22.58;;;2.20;99.90;;;;;;5029383;28;20067;-59
2023/01/28 12:24:00;;;;;;;38.13;22.08;;;2.10;99.90;;;;;;5029837;28;20069;-63
2023/01/28 12:26:25;;;;;;;37.92;23.35;;;2.20;99.90;;;;;;5027018;28;20033;-62
2023/01/28 12:29:04;;;;;;;38.17;23.55;;;2.50;99.90;;;;;;5027705;28;20061;-62
2023/01/28 12:31:52;;;;;;;35.97;23.85;;;2.50;99.90;;;;;;5021712;28;20038;-61
2023/01/28 12:34:55;;;;;;;35.15;22.58;;;2.30;99.90;;;;;;5026906;28;20072;-59
2023/01/28 12:37:28;;;;;;;37.63;24.20;;;2.30;99.90;;;;;;5027871;28;20535;-59
2023/01/28 12:40:14;;;;;;;35.13;22.97;;;2.40;99.90;;;;;;5028039;28;20515;-61
2023/01/28 12:42:40;;;;;;;53.17;33.67;;;2.50;99.90;;;;;;5044626;28;20032;-62
2023/01/28 12:45:27;;;;;;;51.72;31.77;;;2.40;99.90;;;;;;5039739;28;20037;-63
2023/01/28 12:47:59;;;;;;;51.72;32.30;;;2.40;99.90;;;;;;5035594;28;20055;-59
2023/01/28 12:50:33;;;;;;;39.90;24.95;;;2.30;99.90;;;;;;5028641;28;20053;-61
2023/01/28 12:53:16;;;;;;;45.78;29.27;;;2.70;99.90;;;;;;5029460;28;20384;-62
2023/01/28 12:56:07;;;;;;;47.20;30.13;;;2.70;99.90;;;;;;5029071;28;20124;-60
2023/01/28 12:58:44;;;;;;;48.95;30.50;;;2.80;99.90;;;;;;5024070;28;20033;-59
2023/01/28 13:01:15;;;;;;;47.08;29.50;;;3.00;99.90;;;;;;5035816;28;20641;-60
2023/01/28 13:03:47;;;;;;;45.53;29.73;;;2.90;99.90;;;;;;5033329;28;20035;-63
2023/01/28 13:06:40;;;;;;;47.35;29.52;;;2.80;99.90;;;;;;5025262;28;20044;-61
2023/01/28 13:09:20;;;;;;;46.28;29.00;;;2.80;99.90;;;;;;5008931;28;20382;-56
2023/01/28 13:11:49;;;;;;;46.83;30.10;;;2.70;99.90;;;;;;5021029;28;20374;-63
2023/01/28 13:14:16;;;;;;;46.38;29.20;;;2.30;99.90;;;;;;5027819;28;20399;-63
2023/01/28 13:16:42;;;;;;;45.53;28.48;;;2.50;99.90;;;;;;5031393;28;20470;-61
2023/01/28 13:19:24;;;;;;;40.85;27.08;;;2.60;99.90;;;;;;5028139;28;20109;-63
2023/01/28 13:21:49;;;;;;;46.40;29.48;;;2.60;99.90;;;;;;5028258;28;20029;-63